Superior, Wisconsin
Current Conditions -  °F | °C
As of 10:34 PM on Friday 24 Oct 2014 (Local Time) from KDYT Reporting Station
Clear Clear  
Wind Chill: 59°   Ceiling: Unl
Heat Index: 59°   Visibility: 10mi
Dew Point: 52°   Wind: 10mph
Humidity: 77%   Direction: 220°SW
Pressure: 29.76"   Gusts: NA
Location:  46.72°N, 92.1°W
Report Text: KDYT 250334Z AUTO 22009KT 10SM CLR 15/11 A2976 RMK AO2
Loading
Personal Weather Stations






























Interactive Weather Map
Tropical Storm Tracking
New forecast layout! Learn more

10-Day Weather Forecast

Advertisements
Track Severe Weather on mobile